ADDS TAF Board (Experimental) INFO Settings
IDs: Format: Expanded Condensed

KMIA - Miami Intl, FL, US

Issued at 2333 UTC 31 Aug 2015
Updated at: 0148 UTC 01 Sep 2015
Time0053Z 01/02Z 01/03Z 01/04Z 01/05Z 01/06Z 01/07Z 01/08Z 01/09Z 01/10Z 01/11Z 01/12Z 01/13Z 01/14Z
Type OBS PRVL PRVL PRVL PRVL PRVL PRVL PRVL PRVL PRVL PRVL PRVL PRVL PRVL
VIS 10 >6 >6 >6 >6 >6 >6 >6 >6 >6 >6 >6 >6 >6
CIG 30 -- -- -- -- -- -- -- -- -- -- -- -- --
Cover BKN SCT SCT SKC SKC SKC SKC SKC SKC SKC SKC SKC SKC SKC
FltCat MVFR VFR VFR VFR VFR VFR VFR VFR VFR VFR VFR VFR VFR VFR
WX -- -- -- -- -- -- -- -- -- -- -- -- -- --
WDir VRB 120 120 VRB VRB VRB VRB VRB VRB VRB VRB VRB VRB VRB
WSpd 3 8 8 0 0 0 0 0 0 0 0 0 0 0
WGst -- -- -- -- -- -- -- -- -- -- -- -- -- --
R08/26
XWnd VRB -4 -4 VRB VRB VRB VRB VRB VRB VRB VRB VRB VRB VRB
HWnd VRB 7 7 VRB VRB VRB VRB VRB VRB VRB VRB VRB VRB VRB
R09/27
XWnd VRB -4 -4 VRB VRB VRB VRB VRB VRB VRB VRB VRB VRB VRB
HWnd VRB 7 7 VRB VRB VRB VRB VRB VRB VRB VRB VRB VRB VRB
R12/30
XWnd VRB -0 -0 VRB VRB VRB VRB VRB VRB VRB VRB VRB VRB VRB
HWnd VRB 8 8 VRB VRB VRB VRB VRB VRB VRB VRB VRB VRB VRB

NOTE: TEMPO conditions in [brackets]. Keep in mind TEMPO conditions might be better (lower impact) than prevailing conditions.

Raw TAF
KMIA 312333Z 0100/0124 12008KT P6SM SCT060
  FM010400 00000KT P6SM SKC
  FM011600 13006KT P6SM VCSH SCT030 SCT250


Raw METAR
KMIA 010053Z VRB03KT 10SM SCT024 BKN030 BKN250 29/24 A3006 RMK AO2 SLP178 T02940244 $
KMIA 312353Z 15006KT 10SM FEW032 BKN250 29/25 A3004 RMK AO2 SLP172 T02940250 10328 20294 53007 $
KMIA 312253Z 12008KT 10SM FEW029 BKN250 31/25 A3002 RMK AO2 SLP166 CB DSNT N T03060250 $

METAR Board
Radar Display
Forecast Discussion

TAF Board Legend

Potential Impact
Threat None Slight Moderate High
Visibility (sm) ≥5.1 5.1>X≥3 3>X≥1 <1
Ceiling (100 ft) ≥30.1 30.1>X≥10 10>X≥5 <5
Wind Speed (kt) <10 10≤X<20 20≤X<30 ≥30
Wind Gust (kt) <15 15≤X<25 25≤X<35 ≥35
Weather No Wx Reported VCTS,-TS,-FZRA,SN TS,FZRA +TS,+FZRA,+SN